Terminal Aerodrome Forecast
Issued by NWS Blacksburg, VA

Current Version | Previous Version | Text Only | Print | Product List | Glossary Off
Versions: 1 2 3 4 5 6 7 8 9 10 11 12 13 14 15 16 17 18 19 20 21 22 23 24 25 26 27 28 29 30 31 32 33 34 35

746
FTUS41 KRNK 111543 AAA
TAFBLF
TAF AMD
KBLF 111543Z 1116/1212 29012G23KT P6SM SCT020
      TEMPO 1116/1119 BKN025
     FM111900 30012G22KT P6SM SCT035
     FM112300 30007KT P6SM SCT120
     FM120900 22008KT P6SM BKN035 OVC100=

USA.gov is the U.S. government's official web portal to all federal, state and local government web resources and services.